Kitanomaru — JD2835 — position and weather

sailwx.info

Track history (hours):
 
Tides and Currents Weather Stations Pressure Air Temp Water Temp Dewpoint Dewpoint Depression Visibility Wind Speed Wind Dir Waves Ship Positions

Kitanomaru

Last reported at 2017-May-24 07:58 UTC. Time now 2017-May-25 14:09 UTC.
Position N 35°37' E 140°00'.

Length 39 m; draft 4 m.

Type: Tug. MMSI: 431000773.

Date/timePositionNaut miles runAvg speedWind from/ knotsBaromVisibWave heightAir tempDewpointWater temp
2017-May-24 07:58N 35°37' E 140°00'3 4.5
2017-May-24 07:17N 35°40' E 140°00'2 8.6
2017-May-24 07:00N 35°38' E 139°60'9 0.3
2017-May-23 01:55N 35°29' E 139°58'2 2.8
2017-May-23 01:12N 35°30' E 139°56'0 0.3
2017-May-23 00:53N 35°30' E 139°56'9 0.5
2017-May-22 07:20N 35°38' E 139°59'2 7.4
2017-May-22 07:01N 35°40' E 139°59'0 0.1
2017-May-22 06:29N 35°40' E 139°59'7 2.1
2017-May-22 03:04N 35°35' E 140°04'9 1.9
2017-May-21 22:22N 35°28' E 139°58'2 4.2
2017-May-21 22:00N 35°29' E 139°57'10 0.8
2017-May-21 09:08N 35°36' E 140°06'1 3.6
2017-May-21 08:59N 35°36' E 140°06'3 1.1
2017-May-21 06:15N 35°34' E 140°03'0 0.0
2017-May-21 05:02N 35°34' E 140°03'0 0.0
2017-May-21 03:13N 35°34' E 140°03'0 0.0
2017-May-21 03:00N 35°34' E 140°03'3 0.4
2017-May-20 19:10N 35°36' E 140°06'0 0.0
2017-May-20 13:45N 35°36' E 140°06'0 0.0
2017-May-20 12:30N 35°36' E 140°06'0 0.0
2017-May-20 09:40N 35°36' E 140°06'0 0.0
2017-May-20 09:29N 35°36' E 140°06'10 1.6
2017-May-20 03:17N 35°31' E 139°56'0 0.4
2017-May-20 03:00N 35°31' E 139°56'0 0.0
2017-May-20 02:30N 35°31' E 139°56'0 0.0
2017-May-20 02:00N 35°31' E 139°56'0 0.3
2017-May-20 01:30N 35°31' E 139°56'2 3.4
2017-May-20 01:01N 35°30' E 139°54'1 2.1
2017-May-20 00:23N 35°30' E 139°56'9 0.4
2017-May-19 02:29N 35°35' E 140°05'  
2017-May-15 08:01N 35°30' E 140°01'0 1.4
2017-May-15 08:00N 35°30' E 140°01'1 0.2
2017-May-15 01:38N 35°29' E 140°00'0 0.1
2017-May-15 01:28N 35°29' E 140°00'  
Track history (hours):
 
Tides and Currents Weather Stations Pressure Air Temp Water Temp Dewpoint Dewpoint Depression Visibility Wind Speed Wind Dir Waves Ship Positions

Kitanomaru

Last reported at 2017-May-24 07:58 UTC. Time now 2017-May-25 14:09 UTC.
Position N 35°37' E 140°00'.

Length 39 m; draft 4 m.

Type: Tug. MMSI: 431000773.

Date/timePositionNaut miles runAvg speedWind from/ knotsBaromVisibWave heightAir tempDewpointWater temp
2017-May-24 07:58N 35°37' E 140°00'3 4.5
2017-May-24 07:17N 35°40' E 140°00'2 8.6
2017-May-24 07:00N 35°38' E 139°60'9 0.3
2017-May-23 01:55N 35°29' E 139°58'2 2.8
2017-May-23 01:12N 35°30' E 139°56'0 0.3
2017-May-23 00:53N 35°30' E 139°56'9 0.5
2017-May-22 07:20N 35°38' E 139°59'2 7.4
2017-May-22 07:01N 35°40' E 139°59'0 0.1
2017-May-22 06:29N 35°40' E 139°59'7 2.1
2017-May-22 03:04N 35°35' E 140°04'9 1.9
2017-May-21 22:22N 35°28' E 139°58'2 4.2
2017-May-21 22:00N 35°29' E 139°57'10 0.8
2017-May-21 09:08N 35°36' E 140°06'1 3.6
2017-May-21 08:59N 35°36' E 140°06'3 1.1
2017-May-21 06:15N 35°34' E 140°03'0 0.0
2017-May-21 05:02N 35°34' E 140°03'0 0.0
2017-May-21 03:13N 35°34' E 140°03'0 0.0
2017-May-21 03:00N 35°34' E 140°03'3 0.4
2017-May-20 19:10N 35°36' E 140°06'0 0.0
2017-May-20 13:45N 35°36' E 140°06'0 0.0
2017-May-20 12:30N 35°36' E 140°06'0 0.0
2017-May-20 09:40N 35°36' E 140°06'0 0.0
2017-May-20 09:29N 35°36' E 140°06'10 1.6
2017-May-20 03:17N 35°31' E 139°56'0 0.4
2017-May-20 03:00N 35°31' E 139°56'0 0.0
2017-May-20 02:30N 35°31' E 139°56'0 0.0
2017-May-20 02:00N 35°31' E 139°56'0 0.3
2017-May-20 01:30N 35°31' E 139°56'2 3.4
2017-May-20 01:01N 35°30' E 139°54'1 2.1
2017-May-20 00:23N 35°30' E 139°56'9 0.4
2017-May-19 02:29N 35°35' E 140°05'  
2017-May-15 08:01N 35°30' E 140°01'0 1.4
2017-May-15 08:00N 35°30' E 140°01'1 0.2
2017-May-15 01:38N 35°29' E 140°00'0 0.1
2017-May-15 01:28N 35°29' E 140°00'  

Dump ship's entire track history